sensor_id;sensor_type;location;lat;lon;timestamp;P1;durP1;ratioP1;P2;durP2;ratioP2
78614;SDS011;67937;52.488;20.952;2023-02-28T00:01:42;10.80;;;5.20;;
78614;SDS011;67937;52.488;20.952;2023-02-28T00:04:10;10.20;;;5.30;;
78614;SDS011;67937;52.488;20.952;2023-02-28T00:06:38;9.10;;;4.40;;
78614;SDS011;67937;52.488;20.952;2023-02-28T00:09:06;7.50;;;4.50;;
78614;SDS011;67937;52.488;20.952;2023-02-28T00:11:34;7.10;;;4.40;;
78614;SDS011;67937;52.488;20.952;2023-02-28T00:14:04;8.30;;;4.90;;
78614;SDS011;67937;52.488;20.952;2023-02-28T00:16:32;8.10;;;3.80;;
78614;SDS011;67937;52.488;20.952;2023-02-28T00:19:01;6.10;;;3.60;;
78614;SDS011;67937;52.488;20.952;2023-02-28T00:21:29;8.90;;;4.80;;
78614;SDS011;67937;52.488;20.952;2023-02-28T00:23:57;7.70;;;5.30;;
78614;SDS011;67937;52.488;20.952;2023-02-28T00:26:25;8.40;;;4.50;;
78614;SDS011;67937;52.488;20.952;2023-02-28T00:28:53;9.20;;;5.30;;
78614;SDS011;67937;52.488;20.952;2023-02-28T00:31:22;9.40;;;4.40;;
78614;SDS011;67937;52.488;20.952;2023-02-28T00:33:50;7.10;;;4.70;;
78614;SDS011;67937;52.488;20.952;2023-02-28T00:36:18;8.70;;;4.50;;
78614;SDS011;67937;52.488;20.952;2023-02-28T00:38:46;10.20;;;4.50;;
78614;SDS011;67937;52.488;20.952;2023-02-28T00:41:15;6.40;;;4.00;;
78614;SDS011;67937;52.488;20.952;2023-02-28T00:43:43;7.80;;;4.50;;
78614;SDS011;67937;52.488;20.952;2023-02-28T00:46:12;8.00;;;4.30;;
78614;SDS011;67937;52.488;20.952;2023-02-28T00:48:40;7.50;;;4.20;;
78614;SDS011;67937;52.488;20.952;2023-02-28T00:51:08;7.40;;;4.40;;
78614;SDS011;67937;52.488;20.952;2023-02-28T00:53:36;9.40;;;4.90;;
78614;SDS011;67937;52.488;20.952;2023-02-28T00:56:04;7.20;;;3.80;;
78614;SDS011;67937;52.488;20.952;2023-02-28T00:58:33;11.70;;;4.40;;
78614;SDS011;67937;52.488;20.952;2023-02-28T01:01:01;8.30;;;4.40;;
78614;SDS011;67937;52.488;20.952;2023-02-28T01:03:29;6.20;;;4.10;;
78614;SDS011;67937;52.488;20.952;2023-02-28T01:05:57;10.50;;;4.50;;
78614;SDS011;67937;52.488;20.952;2023-02-28T01:08:26;8.50;;;3.90;;
78614;SDS011;67937;52.488;20.952;2023-02-28T01:10:54;7.10;;;4.40;;
78614;SDS011;67937;52.488;20.952;2023-02-28T01:13:23;6.70;;;4.10;;
78614;SDS011;67937;52.488;20.952;2023-02-28T01:15:52;7.80;;;4.00;;
78614;SDS011;67937;52.488;20.952;2023-02-28T01:20:52;5.70;;;3.60;;
78614;SDS011;67937;52.488;20.952;2023-02-28T01:23:21;4.50;;;3.50;;
78614;SDS011;67937;52.488;20.952;2023-02-28T01:25:50;5.30;;;3.80;;
78614;SDS011;67937;52.488;20.952;2023-02-28T01:28:19;7.60;;;4.20;;
78614;SDS011;67937;52.488;20.952;2023-02-28T01:30:48;6.60;;;3.70;;
78614;SDS011;67937;52.488;20.952;2023-02-28T01:33:17;5.00;;;3.10;;
78614;SDS011;67937;52.488;20.952;2023-02-28T01:35:45;6.80;;;3.60;;
78614;SDS011;67937;52.488;20.952;2023-02-28T01:38:13;5.00;;;3.80;;
78614;SDS011;67937;52.488;20.952;2023-02-28T01:40:42;8.20;;;4.60;;
78614;SDS011;67937;52.488;20.952;2023-02-28T01:43:19;11.10;;;5.60;;
78614;SDS011;67937;52.488;20.952;2023-02-28T01:45:51;9.90;;;4.70;;
78614;SDS011;67937;52.488;20.952;2023-02-28T01:48:29;6.10;;;4.50;;
78614;SDS011;67937;52.488;20.952;2023-02-28T01:51:04;7.90;;;4.60;;
78614;SDS011;67937;52.488;20.952;2023-02-28T01:53:39;8.60;;;4.90;;
78614;SDS011;67937;52.488;20.952;2023-02-28T01:56:12;8.70;;;4.90;;
78614;SDS011;67937;52.488;20.952;2023-02-28T01:58:47;7.60;;;4.50;;
78614;SDS011;67937;52.488;20.952;2023-02-28T02:01:16;5.40;;;4.00;;
78614;SDS011;67937;52.488;20.952;2023-02-28T02:03:48;6.80;;;4.00;;
78614;SDS011;67937;52.488;20.952;2023-02-28T02:06:22;6.40;;;3.70;;
78614;SDS011;67937;52.488;20.952;2023-02-28T02:08:56;5.90;;;4.20;;
78614;SDS011;67937;52.488;20.952;2023-02-28T02:11:25;7.90;;;4.40;;
78614;SDS011;67937;52.488;20.952;2023-02-28T02:23:23;9.20;;;5.20;;
78614;SDS011;67937;52.488;20.952;2023-02-28T02:36:59;6.20;;;4.10;;
78614;SDS011;67937;52.488;20.952;2023-02-28T02:39:35;4.90;;;3.30;;
78614;SDS011;67937;52.488;20.952;2023-02-28T02:42:45;6.20;;;3.30;;
78614;SDS011;67937;52.488;20.952;2023-02-28T02:45:34;7.00;;;3.40;;
78614;SDS011;67937;52.488;20.952;2023-02-28T02:48:09;5.00;;;2.60;;
78614;SDS011;67937;52.488;20.952;2023-02-28T02:50:58;4.60;;;3.00;;
78614;SDS011;67937;52.488;20.952;2023-02-28T02:56:09;2.00;;;1.70;;
78614;SDS011;67937;52.488;20.952;2023-02-28T02:58:40;3.00;;;1.80;;
78614;SDS011;67937;52.488;20.952;2023-02-28T03:01:10;11.30;;;4.20;;
78614;SDS011;67937;52.488;20.952;2023-02-28T03:03:43;10.10;;;4.60;;
78614;SDS011;67937;52.488;20.952;2023-02-28T03:06:14;9.30;;;4.60;;
78614;SDS011;67937;52.488;20.952;2023-02-28T03:08:42;7.60;;;4.20;;
78614;SDS011;67937;52.488;20.952;2023-02-28T03:11:13;6.80;;;4.00;;
78614;SDS011;67937;52.488;20.952;2023-02-28T03:13:51;6.50;;;3.80;;
78614;SDS011;67937;52.488;20.952;2023-02-28T03:16:45;6.70;;;3.60;;
78614;SDS011;67937;52.488;20.952;2023-02-28T03:19:41;3.80;;;3.10;;
78614;SDS011;67937;52.488;20.952;2023-02-28T03:22:23;7.90;;;3.40;;
78614;SDS011;67937;52.488;20.952;2023-02-28T03:25:36;6.40;;;3.40;;
78614;SDS011;67937;52.488;20.952;2023-02-28T03:30:47;5.00;;;3.10;;
78614;SDS011;67937;52.488;20.952;2023-02-28T03:33:21;4.40;;;3.20;;
78614;SDS011;67937;52.488;20.952;2023-02-28T03:35:55;5.20;;;2.50;;
78614;SDS011;67937;52.488;20.952;2023-02-28T03:38:32;6.60;;;3.80;;
78614;SDS011;67937;52.488;20.952;2023-02-28T03:41:22;6.90;;;4.40;;
78614;SDS011;67937;52.488;20.952;2023-02-28T03:43:54;9.90;;;5.60;;
78614;SDS011;67937;52.488;20.952;2023-02-28T03:46:26;10.30;;;4.60;;
78614;SDS011;67937;52.488;20.952;2023-02-28T03:49:02;8.90;;;4.50;;
78614;SDS011;67937;52.488;20.952;2023-02-28T03:51:52;5.50;;;4.00;;
78614;SDS011;67937;52.488;20.952;2023-02-28T03:54:26;6.60;;;3.30;;
78614;SDS011;67937;52.488;20.952;2023-02-28T04:00:30;8.30;;;4.10;;
78614;SDS011;67937;52.488;20.952;2023-02-28T04:03:10;5.30;;;2.60;;
78614;SDS011;67937;52.488;20.952;2023-02-28T04:05:51;4.40;;;3.20;;
78614;SDS011;67937;52.488;20.952;2023-02-28T04:08:21;5.50;;;3.00;;
78614;SDS011;67937;52.488;20.952;2023-02-28T04:10:55;2.90;;;2.40;;
78614;SDS011;67937;52.488;20.952;2023-02-28T04:13:28;8.20;;;4.30;;
78614;SDS011;67937;52.488;20.952;2023-02-28T04:15:56;8.30;;;4.20;;
78614;SDS011;67937;52.488;20.952;2023-02-28T04:18:24;8.00;;;4.20;;
78614;SDS011;67937;52.488;20.952;2023-02-28T04:20:52;7.00;;;3.40;;
78614;SDS011;67937;52.488;20.952;2023-02-28T04:23:21;7.80;;;3.60;;
78614;SDS011;67937;52.488;20.952;2023-02-28T04:25:49;7.20;;;4.00;;
78614;SDS011;67937;52.488;20.952;2023-02-28T04:28:17;6.50;;;3.50;;
78614;SDS011;67937;52.488;20.952;2023-02-28T04:30:46;3.90;;;3.00;;
78614;SDS011;67937;52.488;20.952;2023-02-28T04:33:14;6.00;;;3.50;;
78614;SDS011;67937;52.488;20.952;2023-02-28T04:35:42;6.00;;;3.00;;
78614;SDS011;67937;52.488;20.952;2023-02-28T04:38:10;5.40;;;3.50;;
78614;SDS011;67937;52.488;20.952;2023-02-28T04:40:39;4.00;;;2.60;;
78614;SDS011;67937;52.488;20.952;2023-02-28T04:43:07;6.90;;;3.40;;
78614;SDS011;67937;52.488;20.952;2023-02-28T04:45:35;6.10;;;2.70;;
78614;SDS011;67937;52.488;20.952;2023-02-28T04:48:03;8.80;;;4.60;;
78614;SDS011;67937;52.488;20.952;2023-02-28T04:50:31;12.20;;;5.60;;
78614;SDS011;67937;52.488;20.952;2023-02-28T04:53:00;10.90;;;6.20;;
78614;SDS011;67937;52.488;20.952;2023-02-28T04:55:28;10.70;;;4.30;;
78614;SDS011;67937;52.488;20.952;2023-02-28T04:57:56;9.90;;;4.40;;
78614;SDS011;67937;52.488;20.952;2023-02-28T05:00:24;12.40;;;6.20;;
78614;SDS011;67937;52.488;20.952;2023-02-28T05:02:52;11.00;;;4.60;;
78614;SDS011;67937;52.488;20.952;2023-02-28T05:05:21;10.50;;;4.70;;
78614;SDS011;67937;52.488;20.952;2023-02-28T05:07:49;5.80;;;3.50;;
78614;SDS011;67937;52.488;20.952;2023-02-28T05:10:17;8.30;;;4.20;;
78614;SDS011;67937;52.488;20.952;2023-02-28T05:12:46;6.80;;;3.70;;
78614;SDS011;67937;52.488;20.952;2023-02-28T05:15:14;5.00;;;3.10;;
78614;SDS011;67937;52.488;20.952;2023-02-28T05:17:44;7.10;;;4.00;;
78614;SDS011;67937;52.488;20.952;2023-02-28T05:20:12;8.60;;;3.80;;
78614;SDS011;67937;52.488;20.952;2023-02-28T05:22:41;7.30;;;3.80;;
78614;SDS011;67937;52.488;20.952;2023-02-28T05:25:10;6.10;;;3.20;;
78614;SDS011;67937;52.488;20.952;2023-02-28T05:27:43;5.80;;;3.40;;
78614;SDS011;67937;52.488;20.952;2023-02-28T05:30:11;4.40;;;3.30;;
78614;SDS011;67937;52.488;20.952;2023-02-28T05:32:40;7.30;;;3.60;;
78614;SDS011;67937;52.488;20.952;2023-02-28T05:35:12;2.90;;;2.20;;
78614;SDS011;67937;52.488;20.952;2023-02-28T05:37:40;5.30;;;3.90;;
78614;SDS011;67937;52.488;20.952;2023-02-28T05:40:08;3.50;;;2.30;;
78614;SDS011;67937;52.488;20.952;2023-02-28T05:42:38;3.90;;;2.50;;
78614;SDS011;67937;52.488;20.952;2023-02-28T05:45:06;4.80;;;3.00;;
78614;SDS011;67937;52.488;20.952;2023-02-28T05:47:36;3.50;;;2.40;;
78614;SDS011;67937;52.488;20.952;2023-02-28T05:50:04;6.60;;;3.40;;
78614;SDS011;67937;52.488;20.952;2023-02-28T05:52:33;2.80;;;1.60;;
78614;SDS011;67937;52.488;20.952;2023-02-28T05:55:01;5.10;;;2.40;;
78614;SDS011;67937;52.488;20.952;2023-02-28T05:57:30;7.60;;;3.70;;
78614;SDS011;67937;52.488;20.952;2023-02-28T05:59:58;8.20;;;4.50;;
78614;SDS011;67937;52.488;20.952;2023-02-28T06:02:27;9.90;;;4.80;;
78614;SDS011;67937;52.488;20.952;2023-02-28T06:04:55;14.50;;;5.90;;
78614;SDS011;67937;52.488;20.952;2023-02-28T06:07:23;6.20;;;3.60;;
78614;SDS011;67937;52.488;20.952;2023-02-28T06:09:51;12.70;;;5.80;;
78614;SDS011;67937;52.488;20.952;2023-02-28T06:12:19;12.00;;;5.70;;
78614;SDS011;67937;52.488;20.952;2023-02-28T06:14:48;7.60;;;4.60;;
78614;SDS011;67937;52.488;20.952;2023-02-28T06:17:16;8.50;;;5.00;;
78614;SDS011;67937;52.488;20.952;2023-02-28T06:19:44;5.10;;;3.40;;
78614;SDS011;67937;52.488;20.952;2023-02-28T06:22:14;5.70;;;3.50;;
78614;SDS011;67937;52.488;20.952;2023-02-28T06:24:42;4.40;;;3.30;;
78614;SDS011;67937;52.488;20.952;2023-02-28T06:27:11;7.20;;;3.20;;
78614;SDS011;67937;52.488;20.952;2023-02-28T06:29:39;8.60;;;4.60;;
78614;SDS011;67937;52.488;20.952;2023-02-28T06:32:07;13.40;;;5.90;;
78614;SDS011;67937;52.488;20.952;2023-02-28T06:34:36;10.40;;;5.40;;
78614;SDS011;67937;52.488;20.952;2023-02-28T06:37:04;8.50;;;5.20;;
78614;SDS011;67937;52.488;20.952;2023-02-28T06:39:32;7.50;;;4.70;;
78614;SDS011;67937;52.488;20.952;2023-02-28T06:42:00;7.90;;;4.80;;
78614;SDS011;67937;52.488;20.952;2023-02-28T06:44:28;10.30;;;5.20;;
78614;SDS011;67937;52.488;20.952;2023-02-28T06:47:02;11.00;;;5.60;;
78614;SDS011;67937;52.488;20.952;2023-02-28T06:49:32;8.00;;;5.00;;
78614;SDS011;67937;52.488;20.952;2023-02-28T06:52:01;7.70;;;4.10;;
78614;SDS011;67937;52.488;20.952;2023-02-28T06:54:30;10.10;;;4.70;;
78614;SDS011;67937;52.488;20.952;2023-02-28T06:56:58;7.40;;;4.80;;
78614;SDS011;67937;52.488;20.952;2023-02-28T06:59:27;12.60;;;6.70;;
78614;SDS011;67937;52.488;20.952;2023-02-28T07:01:55;9.70;;;6.00;;
78614;SDS011;67937;52.488;20.952;2023-02-28T07:04:23;12.90;;;7.00;;
78614;SDS011;67937;52.488;20.952;2023-02-28T07:06:52;14.80;;;6.10;;
78614;SDS011;67937;52.488;20.952;2023-02-28T07:09:22;15.50;;;6.70;;
78614;SDS011;67937;52.488;20.952;2023-02-28T07:11:56;4.70;;;3.80;;
78614;SDS011;67937;52.488;20.952;2023-02-28T07:14:24;7.70;;;4.50;;
78614;SDS011;67937;52.488;20.952;2023-02-28T07:16:52;6.40;;;4.10;;
78614;SDS011;67937;52.488;20.952;2023-02-28T07:19:21;9.40;;;5.20;;
78614;SDS011;67937;52.488;20.952;2023-02-28T07:21:49;5.80;;;3.70;;
78614;SDS011;67937;52.488;20.952;2023-02-28T07:24:17;9.30;;;5.60;;
78614;SDS011;67937;52.488;20.952;2023-02-28T07:26:45;8.10;;;4.80;;
78614;SDS011;67937;52.488;20.952;2023-02-28T07:29:13;9.90;;;5.10;;
78614;SDS011;67937;52.488;20.952;2023-02-28T07:31:41;9.80;;;5.70;;
78614;SDS011;67937;52.488;20.952;2023-02-28T07:34:10;6.00;;;2.30;;
78614;SDS011;67937;52.488;20.952;2023-02-28T07:36:38;8.90;;;4.80;;
78614;SDS011;67937;52.488;20.952;2023-02-28T07:39:06;2.90;;;2.50;;
78614;SDS011;67937;52.488;20.952;2023-02-28T07:41:35;4.00;;;1.90;;
78614;SDS011;67937;52.488;20.952;2023-02-28T07:44:10;5.90;;;2.80;;
78614;SDS011;67937;52.488;20.952;2023-02-28T07:46:39;7.60;;;4.00;;
78614;SDS011;67937;52.488;20.952;2023-02-28T07:49:07;5.60;;;2.50;;
78614;SDS011;67937;52.488;20.952;2023-02-28T07:51:35;7.80;;;3.00;;
78614;SDS011;67937;52.488;20.952;2023-02-28T07:54:04;10.30;;;4.50;;
78614;SDS011;67937;52.488;20.952;2023-02-28T07:56:32;9.60;;;4.60;;
78614;SDS011;67937;52.488;20.952;2023-02-28T07:59:00;5.90;;;4.20;;
78614;SDS011;67937;52.488;20.952;2023-02-28T08:01:29;7.40;;;4.20;;
78614;SDS011;67937;52.488;20.952;2023-02-28T08:03:57;4.70;;;3.10;;
78614;SDS011;67937;52.488;20.952;2023-02-28T08:06:25;4.50;;;3.50;;
78614;SDS011;67937;52.488;20.952;2023-02-28T08:08:53;5.00;;;2.40;;
78614;SDS011;67937;52.488;20.952;2023-02-28T08:11:22;5.60;;;3.30;;
78614;SDS011;67937;52.488;20.952;2023-02-28T08:13:51;7.80;;;4.10;;
78614;SDS011;67937;52.488;20.952;2023-02-28T08:16:19;3.80;;;2.50;;
78614;SDS011;67937;52.488;20.952;2023-02-28T08:18:49;1.90;;;1.60;;
78614;SDS011;67937;52.488;20.952;2023-02-28T08:21:19;4.20;;;3.10;;
78614;SDS011;67937;52.488;20.952;2023-02-28T08:23:48;1.80;;;1.70;;
78614;SDS011;67937;52.488;20.952;2023-02-28T08:26:18;1.40;;;1.20;;
78614;SDS011;67937;52.488;20.952;2023-02-28T08:28:48;2.80;;;1.00;;
78614;SDS011;67937;52.488;20.952;2023-02-28T08:31:16;2.60;;;2.40;;
78614;SDS011;67937;52.488;20.952;2023-02-28T08:33:45;3.30;;;2.30;;
78614;SDS011;67937;52.488;20.952;2023-02-28T08:36:15;2.00;;;1.50;;
78614;SDS011;67937;52.488;20.952;2023-02-28T08:38:43;4.40;;;2.80;;
78614;SDS011;67937;52.488;20.952;2023-02-28T08:41:12;5.70;;;2.90;;
78614;SDS011;67937;52.488;20.952;2023-02-28T08:43:40;5.30;;;2.60;;
78614;SDS011;67937;52.488;20.952;2023-02-28T08:46:11;3.70;;;2.70;;
78614;SDS011;67937;52.488;20.952;2023-02-28T08:48:41;6.30;;;3.70;;
78614;SDS011;67937;52.488;20.952;2023-02-28T08:51:11;3.60;;;2.10;;
78614;SDS011;67937;52.488;20.952;2023-02-28T08:53:42;5.00;;;3.90;;
78614;SDS011;67937;52.488;20.952;2023-02-28T08:56:14;2.50;;;2.10;;
78614;SDS011;67937;52.488;20.952;2023-02-28T08:58:44;6.30;;;4.10;;
78614;SDS011;67937;52.488;20.952;2023-02-28T09:01:14;6.20;;;4.20;;
78614;SDS011;67937;52.488;20.952;2023-02-28T09:03:44;4.00;;;3.10;;
78614;SDS011;67937;52.488;20.952;2023-02-28T09:06:14;1.90;;;1.20;;
78614;SDS011;67937;52.488;20.952;2023-02-28T09:08:44;1.30;;;1.30;;
78614;SDS011;67937;52.488;20.952;2023-02-28T09:11:12;2.50;;;2.10;;
78614;SDS011;67937;52.488;20.952;2023-02-28T09:13:41;3.00;;;2.80;;
78614;SDS011;67937;52.488;20.952;2023-02-28T09:16:10;5.10;;;3.90;;
78614;SDS011;67937;52.488;20.952;2023-02-28T09:18:40;4.10;;;2.40;;
78614;SDS011;67937;52.488;20.952;2023-02-28T09:21:11;2.00;;;1.90;;
78614;SDS011;67937;52.488;20.952;2023-02-28T09:23:42;5.80;;;4.00;;
78614;SDS011;67937;52.488;20.952;2023-02-28T09:26:29;3.10;;;2.80;;
78614;SDS011;67937;52.488;20.952;2023-02-28T09:28:57;6.70;;;3.80;;
78614;SDS011;67937;52.488;20.952;2023-02-28T09:31:27;5.10;;;3.00;;
78614;SDS011;67937;52.488;20.952;2023-02-28T09:33:56;6.40;;;4.50;;
78614;SDS011;67937;52.488;20.952;2023-02-28T09:36:26;8.00;;;3.00;;
78614;SDS011;67937;52.488;20.952;2023-02-28T09:38:56;8.80;;;4.00;;
78614;SDS011;67937;52.488;20.952;2023-02-28T09:41:25;5.10;;;3.30;;
78614;SDS011;67937;52.488;20.952;2023-02-28T09:43:58;2.70;;;1.80;;
78614;SDS011;67937;52.488;20.952;2023-02-28T09:46:31;3.00;;;2.60;;
78614;SDS011;67937;52.488;20.952;2023-02-28T09:49:07;7.70;;;3.60;;
78614;SDS011;67937;52.488;20.952;2023-02-28T09:54:12;7.00;;;5.00;;
78614;SDS011;67937;52.488;20.952;2023-02-28T09:57:32;5.70;;;3.90;;
78614;SDS011;67937;52.488;20.952;2023-02-28T09:59:54;6.80;;;4.10;;
78614;SDS011;67937;52.488;20.952;2023-02-28T10:10:49;1.60;;;1.50;;
78614;SDS011;67937;52.488;20.952;2023-02-28T10:13:23;5.50;;;4.10;;
78614;SDS011;67937;52.488;20.952;2023-02-28T10:16:07;11.40;;;6.90;;
78614;SDS011;67937;52.488;20.952;2023-02-28T10:18:52;6.70;;;4.50;;
78614;SDS011;67937;52.488;20.952;2023-02-28T10:21:30;5.40;;;3.70;;
78614;SDS011;67937;52.488;20.952;2023-02-28T10:24:18;2.80;;;2.50;;
78614;SDS011;67937;52.488;20.952;2023-02-28T10:27:15;4.10;;;2.20;;
78614;SDS011;67937;52.488;20.952;2023-02-28T10:29:49;3.10;;;2.20;;
78614;SDS011;67937;52.488;20.952;2023-02-28T10:35:17;2.70;;;1.40;;
78614;SDS011;67937;52.488;20.952;2023-02-28T10:37:49;4.40;;;3.20;;
78614;SDS011;67937;52.488;20.952;2023-02-28T10:51:35;6.10;;;4.00;;
78614;SDS011;67937;52.488;20.952;2023-02-28T10:54:06;19.70;;;7.80;;
78614;SDS011;67937;52.488;20.952;2023-02-28T10:56:43;6.30;;;4.30;;
78614;SDS011;67937;52.488;20.952;2023-02-28T11:01:43;7.70;;;5.00;;
78614;SDS011;67937;52.488;20.952;2023-02-28T11:04:19;7.10;;;3.70;;
78614;SDS011;67937;52.488;20.952;2023-02-28T11:06:59;6.90;;;4.00;;
78614;SDS011;67937;52.488;20.952;2023-02-28T11:09:34;8.80;;;4.60;;
78614;SDS011;67937;52.488;20.952;2023-02-28T11:12:07;6.30;;;4.40;;
78614;SDS011;67937;52.488;20.952;2023-02-28T11:14:47;7.80;;;6.00;;
78614;SDS011;67937;52.488;20.952;2023-02-28T11:17:26;4.60;;;3.60;;
78614;SDS011;67937;52.488;20.952;2023-02-28T11:19:58;2.50;;;1.80;;
78614;SDS011;67937;52.488;20.952;2023-02-28T11:22:31;6.80;;;3.60;;
78614;SDS011;67937;52.488;20.952;2023-02-28T11:25:08;5.00;;;3.30;;
78614;SDS011;67937;52.488;20.952;2023-02-28T11:27:51;4.30;;;2.80;;
78614;SDS011;67937;52.488;20.952;2023-02-28T11:32:57;7.30;;;4.70;;
78614;SDS011;67937;52.488;20.952;2023-02-28T11:35:36;3.10;;;2.10;;
78614;SDS011;67937;52.488;20.952;2023-02-28T11:38:11;7.50;;;4.30;;
78614;SDS011;67937;52.488;20.952;2023-02-28T11:52:19;7.70;;;3.40;;
78614;SDS011;67937;52.488;20.952;2023-02-28T11:54:59;3.20;;;2.70;;
78614;SDS011;67937;52.488;20.952;2023-02-28T12:06:15;7.40;;;3.70;;
78614;SDS011;67937;52.488;20.952;2023-02-28T12:14:40;7.20;;;4.80;;
78614;SDS011;67937;52.488;20.952;2023-02-28T12:22:48;6.70;;;4.00;;
78614;SDS011;67937;52.488;20.952;2023-02-28T12:27:58;7.90;;;5.50;;
78614;SDS011;67937;52.488;20.952;2023-02-28T12:30:31;3.00;;;2.60;;
78614;SDS011;67937;52.488;20.952;2023-02-28T12:33:06;7.00;;;4.10;;
78614;SDS011;67937;52.488;20.952;2023-02-28T12:35:58;5.40;;;3.70;;
78614;SDS011;67937;52.488;20.952;2023-02-28T12:38:29;10.00;;;4.60;;
78614;SDS011;67937;52.488;20.952;2023-02-28T12:41:12;7.10;;;4.70;;
78614;SDS011;67937;52.488;20.952;2023-02-28T12:44:09;6.10;;;4.60;;
78614;SDS011;67937;52.488;20.952;2023-02-28T12:46:58;4.90;;;2.70;;
78614;SDS011;67937;52.488;20.952;2023-02-28T12:49:33;6.40;;;3.80;;
78614;SDS011;67937;52.488;20.952;2023-02-28T12:52:07;3.70;;;2.60;;
78614;SDS011;67937;52.488;20.952;2023-02-28T12:54:50;6.70;;;3.60;;
78614;SDS011;67937;52.488;20.952;2023-02-28T12:57:34;5.50;;;2.70;;
78614;SDS011;67937;52.488;20.952;2023-02-28T13:00:08;5.10;;;3.20;;
78614;SDS011;67937;52.488;20.952;2023-02-28T13:10:57;6.80;;;4.50;;
78614;SDS011;67937;52.488;20.952;2023-02-28T13:13:26;5.30;;;2.70;;
78614;SDS011;67937;52.488;20.952;2023-02-28T13:15:57;7.00;;;2.70;;
78614;SDS011;67937;52.488;20.952;2023-02-28T13:18:42;4.60;;;3.40;;
78614;SDS011;67937;52.488;20.952;2023-02-28T13:21:22;5.30;;;3.10;;
78614;SDS011;67937;52.488;20.952;2023-02-28T13:34:32;7.40;;;4.40;;
78614;SDS011;67937;52.488;20.952;2023-02-28T13:47:39;8.50;;;5.60;;
78614;SDS011;67937;52.488;20.952;2023-02-28T13:55:44;4.60;;;3.00;;
78614;SDS011;67937;52.488;20.952;2023-02-28T13:58:28;4.30;;;3.30;;
78614;SDS011;67937;52.488;20.952;2023-02-28T14:07:27;11.50;;;7.40;;
78614;SDS011;67937;52.488;20.952;2023-02-28T14:10:01;16.20;;;8.90;;
78614;SDS011;67937;52.488;20.952;2023-02-28T14:13:37;8.90;;;5.10;;
78614;SDS011;67937;52.488;20.952;2023-02-28T14:15:43;6.50;;;4.60;;
78614;SDS011;67937;52.488;20.952;2023-02-28T14:18:19;6.10;;;4.10;;
78614;SDS011;67937;52.488;20.952;2023-02-28T14:21:25;7.10;;;4.10;;
78614;SDS011;67937;52.488;20.952;2023-02-28T14:24:00;7.20;;;4.20;;
78614;SDS011;67937;52.488;20.952;2023-02-28T14:38:25;6.80;;;3.80;;
78614;SDS011;67937;52.488;20.952;2023-02-28T14:41:00;5.60;;;3.70;;
78614;SDS011;67937;52.488;20.952;2023-02-28T14:43:32;4.60;;;2.90;;
78614;SDS011;67937;52.488;20.952;2023-02-28T14:46:01;3.10;;;2.50;;
78614;SDS011;67937;52.488;20.952;2023-02-28T14:48:32;6.70;;;2.90;;
78614;SDS011;67937;52.488;20.952;2023-02-28T14:51:02;4.00;;;2.80;;
78614;SDS011;67937;52.488;20.952;2023-02-28T14:53:34;7.40;;;2.90;;
78614;SDS011;67937;52.488;20.952;2023-02-28T14:56:04;6.80;;;3.70;;
78614;SDS011;67937;52.488;20.952;2023-02-28T14:58:33;3.70;;;2.70;;
78614;SDS011;67937;52.488;20.952;2023-02-28T15:01:02;8.90;;;4.10;;
78614;SDS011;67937;52.488;20.952;2023-02-28T15:06:03;6.60;;;3.60;;
78614;SDS011;67937;52.488;20.952;2023-02-28T15:08:33;6.30;;;3.60;;
78614;SDS011;67937;52.488;20.952;2023-02-28T15:11:04;7.90;;;4.10;;
78614;SDS011;67937;52.488;20.952;2023-02-28T15:13:38;9.30;;;4.60;;
78614;SDS011;67937;52.488;20.952;2023-02-28T15:16:11;8.60;;;4.40;;
78614;SDS011;67937;52.488;20.952;2023-02-28T15:22:04;6.40;;;3.80;;
78614;SDS011;67937;52.488;20.952;2023-02-28T15:24:46;3.80;;;2.90;;
78614;SDS011;67937;52.488;20.952;2023-02-28T15:27:25;7.10;;;4.50;;
78614;SDS011;67937;52.488;20.952;2023-02-28T15:29:59;10.30;;;5.40;;
78614;SDS011;67937;52.488;20.952;2023-02-28T15:32:34;11.40;;;6.60;;
78614;SDS011;67937;52.488;20.952;2023-02-28T15:40:26;7.60;;;4.10;;
78614;SDS011;67937;52.488;20.952;2023-02-28T15:51:36;13.20;;;5.60;;
78614;SDS011;67937;52.488;20.952;2023-02-28T15:54:05;8.40;;;4.30;;
78614;SDS011;67937;52.488;20.952;2023-02-28T15:56:43;9.20;;;4.80;;
78614;SDS011;67937;52.488;20.952;2023-02-28T15:59:15;4.20;;;3.70;;
78614;SDS011;67937;52.488;20.952;2023-02-28T16:01:47;8.80;;;4.60;;
78614;SDS011;67937;52.488;20.952;2023-02-28T16:07:34;11.80;;;5.30;;
78614;SDS011;67937;52.488;20.952;2023-02-28T16:10:04;12.20;;;4.70;;
78614;SDS011;67937;52.488;20.952;2023-02-28T16:12:34;10.80;;;4.90;;
78614;SDS011;67937;52.488;20.952;2023-02-28T16:17:35;5.80;;;3.70;;
78614;SDS011;67937;52.488;20.952;2023-02-28T16:20:14;9.10;;;4.60;;
78614;SDS011;67937;52.488;20.952;2023-02-28T16:22:47;9.80;;;5.00;;
78614;SDS011;67937;52.488;20.952;2023-02-28T16:25:17;9.60;;;5.40;;
78614;SDS011;67937;52.488;20.952;2023-02-28T16:27:48;9.90;;;5.60;;
78614;SDS011;67937;52.488;20.952;2023-02-28T16:30:21;9.80;;;4.90;;
78614;SDS011;67937;52.488;20.952;2023-02-28T16:35:21;10.50;;;4.80;;
78614;SDS011;67937;52.488;20.952;2023-02-28T16:37:51;11.80;;;5.80;;
78614;SDS011;67937;52.488;20.952;2023-02-28T16:40:21;13.80;;;7.40;;
78614;SDS011;67937;52.488;20.952;2023-02-28T16:42:53;18.20;;;9.70;;
78614;SDS011;67937;52.488;20.952;2023-02-28T16:45:25;29.90;;;13.40;;
78614;SDS011;67937;52.488;20.952;2023-02-28T16:47:55;37.20;;;17.40;;
78614;SDS011;67937;52.488;20.952;2023-02-28T16:50:27;27.00;;;15.00;;
78614;SDS011;67937;52.488;20.952;2023-02-28T16:52:58;31.10;;;16.20;;
78614;SDS011;67937;52.488;20.952;2023-02-28T16:55:27;29.20;;;13.90;;
78614;SDS011;67937;52.488;20.952;2023-02-28T16:57:56;30.20;;;15.00;;
78614;SDS011;67937;52.488;20.952;2023-02-28T17:00:27;34.80;;;15.00;;
78614;SDS011;67937;52.488;20.952;2023-02-28T17:02:58;26.90;;;11.80;;
78614;SDS011;67937;52.488;20.952;2023-02-28T17:05:29;24.50;;;11.20;;
78614;SDS011;67937;52.488;20.952;2023-02-28T17:08:03;23.40;;;11.00;;
78614;SDS011;67937;52.488;20.952;2023-02-28T17:10:31;26.50;;;12.20;;
78614;SDS011;67937;52.488;20.952;2023-02-28T17:13:00;22.40;;;10.70;;
78614;SDS011;67937;52.488;20.952;2023-02-28T17:15:28;25.60;;;12.70;;
78614;SDS011;67937;52.488;20.952;2023-02-28T17:17:57;22.40;;;10.90;;
78614;SDS011;67937;52.488;20.952;2023-02-28T17:20:25;26.40;;;11.50;;
78614;SDS011;67937;52.488;20.952;2023-02-28T17:22:53;24.40;;;10.90;;
78614;SDS011;67937;52.488;20.952;2023-02-28T17:25:22;18.60;;;9.00;;
78614;SDS011;67937;52.488;20.952;2023-02-28T17:27:51;18.90;;;8.50;;
78614;SDS011;67937;52.488;20.952;2023-02-28T17:30:20;21.70;;;9.00;;
78614;SDS011;67937;52.488;20.952;2023-02-28T17:35:19;26.80;;;10.90;;
78614;SDS011;67937;52.488;20.952;2023-02-28T17:37:47;24.60;;;11.40;;
78614;SDS011;67937;52.488;20.952;2023-02-28T17:40:17;17.20;;;7.50;;
78614;SDS011;67937;52.488;20.952;2023-02-28T17:42:49;12.30;;;6.30;;
78614;SDS011;67937;52.488;20.952;2023-02-28T17:45:19;17.50;;;9.20;;
78614;SDS011;67937;52.488;20.952;2023-02-28T17:47:48;16.50;;;8.80;;
78614;SDS011;67937;52.488;20.952;2023-02-28T17:50:18;17.00;;;8.00;;
78614;SDS011;67937;52.488;20.952;2023-02-28T17:52:48;17.00;;;8.80;;
78614;SDS011;67937;52.488;20.952;2023-02-28T17:55:17;12.60;;;6.40;;
78614;SDS011;67937;52.488;20.952;2023-02-28T17:57:46;10.60;;;5.20;;
78614;SDS011;67937;52.488;20.952;2023-02-28T18:00:15;11.40;;;5.90;;